createdAt,value
2023-02-19T00:00:07.905Z,981.53
2023-02-19T00:01:08.196Z,981.48
2023-02-19T00:02:07.887Z,981.47
2023-02-19T00:03:07.891Z,981.46
2023-02-19T00:04:07.880Z,981.49
2023-02-19T00:05:07.964Z,981.43
2023-02-19T00:06:07.843Z,981.42
2023-02-19T00:07:07.837Z,981.41
2023-02-19T00:08:07.829Z,981.46
2023-02-19T00:09:07.831Z,981.41
2023-02-19T00:10:07.808Z,981.43
2023-02-19T00:11:08.068Z,981.42
2023-02-19T00:12:07.790Z,981.37
2023-02-19T00:13:07.776Z,981.44
2023-02-19T00:14:07.780Z,981.50
2023-02-19T00:15:07.762Z,981.49
2023-02-19T00:16:07.923Z,981.57
2023-02-19T00:17:07.741Z,981.59
2023-02-19T00:18:07.733Z,981.57
2023-02-19T00:19:07.741Z,981.62
2023-02-19T00:20:07.787Z,981.62
2023-02-19T00:21:08.077Z,981.61
2023-02-19T00:22:07.693Z,981.61
2023-02-19T00:23:07.683Z,981.58
2023-02-19T00:24:07.685Z,981.61
2023-02-19T00:25:07.659Z,981.60
2023-02-19T00:26:17.712Z,981.52
2023-02-19T00:27:09.646Z,981.58
2023-02-19T00:28:07.630Z,981.48
2023-02-19T00:29:07.631Z,981.48
2023-02-19T00:30:07.635Z,981.46
2023-02-19T00:31:07.804Z,981.41
2023-02-19T00:32:07.632Z,981.35
2023-02-19T00:33:07.584Z,981.25
2023-02-19T00:34:07.593Z,981.27
2023-02-19T00:35:07.574Z,981.21
2023-02-19T00:36:07.561Z,981.16
2023-02-19T00:37:07.554Z,981.17
2023-02-19T00:38:07.547Z,981.15
2023-02-19T00:39:07.549Z,981.17
2023-02-19T00:40:07.532Z,981.14
2023-02-19T00:41:07.814Z,981.08
2023-02-19T00:42:07.518Z,981.03
2023-02-19T00:43:07.499Z,981.10
2023-02-19T00:44:07.499Z,981.07
2023-02-19T00:45:07.497Z,981.02
2023-02-19T00:46:07.522Z,981.01
2023-02-19T00:47:07.459Z,981.04
2023-02-19T00:48:07.454Z,981.02
2023-02-19T00:49:07.449Z,981.00
2023-02-19T00:50:07.430Z,981.07
2023-02-19T00:51:07.424Z,981.04
2023-02-19T00:52:07.413Z,981.09
2023-02-19T00:53:07.448Z,981.06
2023-02-19T00:54:07.408Z,981.02
2023-02-19T00:55:07.384Z,981.02
2023-02-19T00:56:07.378Z,981.01
2023-02-19T00:57:07.386Z,981.00
2023-02-19T00:58:07.362Z,981.03
2023-02-19T00:59:07.361Z,981.05
2023-02-19T01:00:07.342Z,981.02
2023-02-19T01:01:07.493Z,981.02
2023-02-19T01:02:07.325Z,981.01
2023-02-19T01:03:07.304Z,981.01
2023-02-19T01:04:07.308Z,981.00
2023-02-19T01:05:07.288Z,980.93
2023-02-19T01:06:07.276Z,980.99
2023-02-19T01:07:10.040Z,980.95
2023-02-19T01:08:07.264Z,981.03
2023-02-19T01:09:07.274Z,981.01
2023-02-19T01:10:07.243Z,980.99
2023-02-19T01:11:07.284Z,981.01
2023-02-19T01:12:07.227Z,981.00
2023-02-19T01:13:07.205Z,980.97
2023-02-19T01:14:07.206Z,980.92
2023-02-19T01:15:07.182Z,980.95
2023-02-19T01:16:07.256Z,980.94
2023-02-19T01:17:07.160Z,980.91
2023-02-19T01:18:07.149Z,980.92
2023-02-19T01:19:07.186Z,980.88
2023-02-19T01:20:07.166Z,980.87
2023-02-19T01:21:07.239Z,980.92
2023-02-19T01:22:07.204Z,980.90
2023-02-19T01:23:07.101Z,980.88
2023-02-19T01:24:07.123Z,980.91
2023-02-19T01:25:07.087Z,980.94
2023-02-19T01:26:07.077Z,980.84
2023-02-19T01:27:07.062Z,980.87
2023-02-19T01:28:07.052Z,980.82
2023-02-19T01:29:07.052Z,980.82
2023-02-19T01:30:07.117Z,980.81
2023-02-19T01:31:07.188Z,980.83
2023-02-19T01:32:07.218Z,980.80
2023-02-19T01:33:07.023Z,980.91
2023-02-19T01:34:07.011Z,980.80
2023-02-19T01:35:06.987Z,980.73
2023-02-19T01:36:06.979Z,980.74
2023-02-19T01:37:06.964Z,980.73
2023-02-19T01:38:06.949Z,980.68
2023-02-19T01:39:07.011Z,980.70
2023-02-19T01:40:06.956Z,980.64
2023-02-19T01:41:06.938Z,980.59
2023-02-19T01:42:06.912Z,980.62
2023-02-19T01:43:06.909Z,980.59
2023-02-19T01:44:06.909Z,980.63
2023-02-19T01:45:06.887Z,980.62
2023-02-19T01:46:06.876Z,980.53
2023-02-19T01:47:06.892Z,980.67
2023-02-19T01:48:06.858Z,980.50
2023-02-19T01:49:06.851Z,980.56
2023-02-19T01:50:06.831Z,980.57
2023-02-19T01:51:06.941Z,980.60
2023-02-19T01:52:06.811Z,980.56
2023-02-19T01:53:06.803Z,980.53
2023-02-19T01:54:06.808Z,980.52
2023-02-19T01:55:06.783Z,980.48
2023-02-19T01:56:06.774Z,980.50
2023-02-19T01:57:06.793Z,980.47
2023-02-19T01:58:06.752Z,980.40
2023-02-19T01:59:06.757Z,980.46
2023-02-19T02:00:06.731Z,980.46
2023-02-19T02:01:06.811Z,980.48
2023-02-19T02:02:06.719Z,980.51
2023-02-19T02:03:06.701Z,980.47
2023-02-19T02:04:06.708Z,980.42
2023-02-19T02:05:06.689Z,980.32
2023-02-19T02:06:06.677Z,980.38
2023-02-19T02:07:06.664Z,980.31
2023-02-19T02:08:06.656Z,980.29
2023-02-19T02:09:06.661Z,980.41
2023-02-19T02:10:06.643Z,980.37
2023-02-19T02:11:06.630Z,980.32
2023-02-19T02:12:06.624Z,980.33
2023-02-19T02:13:06.614Z,980.29
2023-02-19T02:14:06.610Z,980.42
2023-02-19T02:15:07.597Z,980.42
2023-02-19T02:16:06.594Z,980.41
2023-02-19T02:17:06.572Z,980.28
2023-02-19T02:18:06.592Z,980.35
2023-02-19T02:19:06.583Z,980.30
2023-02-19T02:20:06.547Z,980.37
2023-02-19T02:21:06.539Z,980.36
2023-02-19T02:22:06.529Z,980.41
2023-02-19T02:23:06.527Z,980.34
2023-02-19T02:24:06.521Z,980.29
2023-02-19T02:25:06.514Z,980.31
2023-02-19T02:26:06.482Z,980.31
2023-02-19T02:27:07.484Z,980.28
2023-02-19T02:28:06.473Z,980.33
2023-02-19T02:29:06.474Z,980.31
2023-02-19T02:30:06.500Z,980.34
2023-02-19T02:31:06.543Z,980.31
2023-02-19T02:32:06.470Z,980.37
2023-02-19T02:33:07.422Z,980.33
2023-02-19T02:34:06.468Z,980.31
2023-02-19T02:35:06.406Z,980.22
2023-02-19T02:36:06.401Z,980.22
2023-02-19T02:37:06.383Z,980.22
2023-02-19T02:38:06.385Z,980.15
2023-02-19T02:39:06.368Z,980.13
2023-02-19T02:40:07.359Z,980.24
2023-02-19T02:41:06.347Z,980.18
2023-02-19T02:42:06.338Z,980.19
2023-02-19T02:43:06.334Z,980.12
2023-02-19T02:44:06.332Z,980.12
2023-02-19T02:45:06.310Z,980.18
2023-02-19T02:46:06.344Z,980.18
2023-02-19T02:47:06.293Z,980.16
2023-02-19T02:48:06.282Z,980.12
2023-02-19T02:49:06.283Z,980.18
2023-02-19T02:50:06.274Z,980.13
2023-02-19T02:51:06.256Z,980.06
2023-02-19T02:52:06.248Z,980.10
2023-02-19T02:53:06.238Z,980.14
2023-02-19T02:54:06.246Z,980.10
2023-02-19T02:55:06.218Z,980.11
2023-02-19T02:56:06.208Z,980.09
2023-02-19T02:57:06.219Z,980.14
2023-02-19T02:58:06.188Z,980.12
2023-02-19T02:59:06.193Z,980.09
2023-02-19T03:00:06.172Z,980.15
2023-02-19T03:01:06.238Z,980.14
2023-02-19T03:02:06.205Z,980.12
2023-02-19T03:03:06.145Z,980.18
2023-02-19T03:04:06.142Z,980.14
2023-02-19T03:05:06.136Z,980.16
2023-02-19T03:06:06.121Z,980.12
2023-02-19T03:07:06.121Z,980.07
2023-02-19T03:08:06.100Z,980.12
2023-02-19T03:09:06.113Z,980.09
2023-02-19T03:10:06.094Z,979.96
2023-02-19T03:11:06.097Z,979.97
2023-02-19T03:12:06.063Z,980.03
2023-02-19T03:13:06.053Z,980.00
2023-02-19T03:14:06.055Z,980.00
2023-02-19T03:15:06.027Z,979.94
2023-02-19T03:16:06.076Z,980.04
2023-02-19T03:17:06.007Z,979.98
2023-02-19T03:18:05.998Z,979.89
2023-02-19T03:19:06.004Z,979.97
2023-02-19T03:20:05.981Z,979.93
2023-02-19T03:21:05.996Z,979.93
2023-02-19T03:22:05.958Z,979.94
2023-02-19T03:23:05.951Z,979.93
2023-02-19T03:24:05.938Z,979.95
2023-02-19T03:25:05.940Z,980.01
2023-02-19T03:26:05.949Z,979.94
2023-02-19T03:27:05.908Z,979.91
2023-02-19T03:28:05.901Z,979.92
2023-02-19T03:29:05.890Z,979.95
2023-02-19T03:30:05.950Z,979.88
2023-02-19T03:31:05.901Z,979.88
2023-02-19T03:32:05.871Z,979.88
2023-02-19T03:33:05.851Z,979.84
2023-02-19T03:34:05.856Z,979.88
2023-02-19T03:35:05.857Z,979.83
2023-02-19T03:36:05.828Z,979.86
2023-02-19T03:37:05.807Z,979.86
2023-02-19T03:38:05.801Z,979.94
2023-02-19T03:39:05.788Z,979.94
2023-02-19T03:40:05.790Z,979.98
2023-02-19T03:41:05.770Z,979.98
2023-02-19T03:42:05.761Z,979.97
2023-02-19T03:43:05.753Z,980.08
2023-02-19T03:44:05.744Z,980.05
2023-02-19T03:45:05.744Z,980.08
2023-02-19T03:46:05.757Z,980.02
2023-02-19T03:47:05.725Z,979.96
2023-02-19T03:48:05.752Z,979.97
2023-02-19T03:49:05.704Z,979.95
2023-02-19T03:50:05.699Z,979.98
2023-02-19T03:51:05.703Z,980.04
2023-02-19T03:52:05.675Z,980.06
2023-02-19T03:53:05.669Z,980.09
2023-02-19T03:54:05.654Z,980.08
2023-02-19T03:55:05.648Z,980.14
2023-02-19T03:56:05.631Z,980.18
2023-02-19T03:57:05.623Z,980.28
2023-02-19T03:58:05.637Z,980.23
2023-02-19T03:59:05.604Z,980.33
2023-02-19T04:00:05.611Z,980.30
2023-02-19T04:01:05.583Z,980.37
2023-02-19T04:02:05.645Z,980.31
2023-02-19T04:03:05.564Z,980.39
2023-02-19T04:04:05.562Z,980.45
2023-02-19T04:05:05.563Z,980.54
2023-02-19T04:06:05.557Z,980.50
2023-02-19T04:07:05.530Z,980.42
2023-02-19T04:08:05.542Z,980.46
2023-02-19T04:09:05.524Z,980.49
2023-02-19T04:10:05.514Z,980.44
2023-02-19T04:11:05.492Z,980.43
2023-02-19T04:12:05.476Z,980.46
2023-02-19T04:13:06.474Z,980.39
2023-02-19T04:14:05.479Z,980.37
2023-02-19T04:15:05.470Z,980.38
2023-02-19T04:16:05.450Z,980.41
2023-02-19T04:17:05.444Z,980.49
2023-02-19T04:18:05.416Z,980.47
2023-02-19T04:19:06.416Z,980.51
2023-02-19T04:20:05.422Z,980.50
2023-02-19T04:21:05.400Z,980.44
2023-02-19T04:22:05.387Z,980.49
2023-02-19T04:23:05.374Z,980.46
2023-02-19T04:24:05.360Z,980.44
2023-02-19T04:25:06.513Z,980.49
2023-02-19T04:26:05.354Z,980.45
2023-02-19T04:27:05.340Z,980.42
2023-02-19T04:28:05.345Z,980.48
2023-02-19T04:29:05.325Z,980.50
2023-02-19T04:30:05.345Z,980.48
2023-02-19T04:31:05.357Z,980.51
2023-02-19T04:32:05.336Z,980.48
2023-02-19T04:33:05.289Z,980.53
2023-02-19T04:34:05.285Z,980.57
2023-02-19T04:35:05.279Z,980.58
2023-02-19T04:36:05.256Z,980.68
2023-02-19T04:37:05.243Z,980.66
2023-02-19T04:38:05.242Z,980.70
2023-02-19T04:39:05.226Z,980.74
2023-02-19T04:40:05.240Z,980.73
2023-02-19T04:41:05.207Z,980.69
2023-02-19T04:42:05.192Z,980.71
2023-02-19T04:43:05.189Z,980.70
2023-02-19T04:44:05.177Z,980.75
2023-02-19T04:45:05.183Z,980.73
2023-02-19T04:46:05.184Z,980.70
2023-02-19T04:47:05.166Z,980.75
2023-02-19T04:48:05.139Z,980.75
2023-02-19T04:49:05.132Z,980.78
2023-02-19T04:50:05.122Z,980.78
2023-02-19T04:51:06.116Z,980.82
2023-02-19T04:52:05.102Z,980.80
2023-02-19T04:53:05.097Z,980.78
2023-02-19T04:54:05.086Z,980.77
2023-02-19T04:55:05.089Z,980.73
2023-02-19T04:56:05.066Z,980.84
2023-02-19T04:57:05.054Z,980.84
2023-02-19T04:58:05.059Z,980.96
2023-02-19T04:59:05.045Z,980.83
2023-02-19T05:00:05.047Z,980.87
2023-02-19T05:01:05.020Z,980.90
2023-02-19T05:02:05.007Z,980.79
2023-02-19T05:03:05.001Z,980.79
2023-02-19T05:04:05.046Z,980.89
2023-02-19T05:05:04.986Z,980.80
2023-02-19T05:06:04.967Z,980.86
2023-02-19T05:07:04.956Z,980.91
2023-02-19T05:08:04.937Z,980.98
2023-02-19T05:09:05.941Z,980.93
2023-02-19T05:10:04.938Z,980.89
2023-02-19T05:11:04.923Z,980.93
2023-02-19T05:12:04.909Z,980.98
2023-02-19T05:13:04.898Z,980.97
2023-02-19T05:14:04.894Z,980.97
2023-02-19T05:15:04.890Z,980.96
2023-02-19T05:16:04.923Z,981.01
2023-02-19T05:17:04.863Z,980.92
2023-02-19T05:18:04.852Z,980.94
2023-02-19T05:19:04.840Z,980.99
2023-02-19T05:20:04.842Z,980.97
2023-02-19T05:21:04.828Z,980.93
2023-02-19T05:22:04.835Z,980.93
2023-02-19T05:23:04.798Z,980.96
2023-02-19T05:24:04.789Z,980.95
2023-02-19T05:25:04.794Z,981.09
2023-02-19T05:26:04.771Z,981.07
2023-02-19T05:27:04.761Z,981.09
2023-02-19T05:28:04.750Z,981.08
2023-02-19T05:29:04.750Z,981.15
2023-02-19T05:30:04.775Z,981.21
2023-02-19T05:31:04.831Z,981.25
2023-02-19T05:32:04.755Z,981.21
2023-02-19T05:33:04.705Z,981.27
2023-02-19T05:34:04.694Z,981.23
2023-02-19T05:35:04.695Z,981.37
2023-02-19T05:36:04.675Z,981.32
2023-02-19T05:37:04.670Z,981.28
2023-02-19T05:38:04.657Z,981.31
2023-02-19T05:39:04.678Z,981.34
2023-02-19T05:40:04.660Z,981.29
2023-02-19T05:41:04.628Z,981.37
2023-02-19T05:42:04.619Z,981.33
2023-02-19T05:43:04.612Z,981.46
2023-02-19T05:44:04.597Z,981.41
2023-02-19T05:45:04.601Z,981.47
2023-02-19T05:46:04.585Z,981.35
2023-02-19T05:47:04.591Z,981.35
2023-02-19T05:48:04.587Z,981.45
2023-02-19T05:49:04.557Z,981.47
2023-02-19T05:50:04.567Z,981.47
2023-02-19T05:51:13.548Z,981.41
2023-02-19T05:52:04.520Z,981.49
2023-02-19T05:53:04.515Z,981.49
2023-02-19T05:54:04.523Z,981.51
2023-02-19T05:55:04.497Z,981.47
2023-02-19T05:56:04.495Z,981.46
2023-02-19T05:57:04.477Z,981.53
2023-02-19T05:58:05.483Z,981.47
2023-02-19T05:59:04.453Z,981.57
2023-02-19T06:00:04.445Z,981.58
2023-02-19T06:01:04.453Z,981.54
2023-02-19T06:02:04.431Z,981.55
2023-02-19T06:03:04.433Z,981.58
2023-02-19T06:04:04.422Z,981.54
2023-02-19T06:05:04.424Z,981.48
2023-02-19T06:06:04.417Z,981.53
2023-02-19T06:07:04.377Z,981.62
2023-02-19T06:08:04.368Z,981.58
2023-02-19T06:09:04.365Z,981.69
2023-02-19T06:10:04.364Z,981.64
2023-02-19T06:11:04.353Z,981.71
2023-02-19T06:12:04.337Z,981.68
2023-02-19T06:13:04.327Z,981.78
2023-02-19T06:14:04.329Z,981.81
2023-02-19T06:15:04.336Z,981.78
2023-02-19T06:16:04.410Z,981.84
2023-02-19T06:17:04.289Z,981.81
2023-02-19T06:18:04.298Z,981.85
2023-02-19T06:19:04.308Z,981.83
2023-02-19T06:20:04.264Z,981.89
2023-02-19T06:21:04.259Z,981.85
2023-02-19T06:22:04.240Z,981.91
2023-02-19T06:23:04.232Z,981.95
2023-02-19T06:24:04.225Z,981.95
2023-02-19T06:25:04.214Z,981.92
2023-02-19T06:26:04.232Z,981.98
2023-02-19T06:27:04.194Z,982.00
2023-02-19T06:28:04.188Z,982.01
2023-02-19T06:29:04.175Z,981.97
2023-02-19T06:30:04.190Z,981.96
2023-02-19T06:31:04.199Z,981.97
2023-02-19T06:32:04.288Z,982.00
2023-02-19T06:33:04.142Z,982.07
2023-02-19T06:34:04.140Z,982.03
2023-02-19T06:35:04.126Z,982.03
2023-02-19T06:36:04.127Z,982.09
2023-02-19T06:37:04.111Z,982.05
2023-02-19T06:38:04.100Z,982.04
2023-02-19T06:39:04.092Z,982.12
2023-02-19T06:40:04.086Z,982.18
2023-02-19T06:41:04.081Z,982.14
2023-02-19T06:42:04.063Z,982.10
2023-02-19T06:43:04.056Z,982.20
2023-02-19T06:44:04.059Z,982.26
2023-02-19T06:45:04.032Z,982.27
2023-02-19T06:46:04.038Z,982.28
2023-02-19T06:47:04.016Z,982.25
2023-02-19T06:48:04.011Z,982.39
2023-02-19T06:49:03.995Z,982.35
2023-02-19T06:50:03.998Z,982.30
2023-02-19T06:51:03.987Z,982.27
2023-02-19T06:52:03.977Z,982.31
2023-02-19T06:53:03.963Z,982.32
2023-02-19T06:54:03.949Z,982.36
2023-02-19T06:55:03.943Z,982.32
2023-02-19T06:56:03.976Z,982.44
2023-02-19T06:57:03.928Z,982.50
2023-02-19T06:58:03.914Z,982.42
2023-02-19T06:59:03.923Z,982.51
2023-02-19T07:00:03.897Z,982.48
2023-02-19T07:01:03.916Z,982.49
2023-02-19T07:02:03.869Z,982.53
2023-02-19T07:03:05.481Z,982.55
2023-02-19T07:04:04.901Z,982.66
2023-02-19T07:05:03.856Z,982.65
2023-02-19T07:06:03.842Z,982.64
2023-02-19T07:07:03.821Z,982.67
2023-02-19T07:08:03.816Z,982.71
2023-02-19T07:09:03.808Z,982.70
2023-02-19T07:10:03.797Z,982.67
2023-02-19T07:11:03.792Z,982.66
2023-02-19T07:12:04.777Z,982.73
2023-02-19T07:13:03.773Z,982.67
2023-02-19T07:14:03.773Z,982.68
2023-02-19T07:15:03.752Z,982.68
2023-02-19T07:16:03.812Z,982.72
2023-02-19T07:17:03.733Z,982.70
2023-02-19T07:18:03.722Z,982.74
2023-02-19T07:19:03.725Z,982.78
2023-02-19T07:20:03.708Z,982.85
2023-02-19T07:21:03.708Z,982.85
2023-02-19T07:22:03.687Z,982.81
2023-02-19T07:23:03.675Z,982.81
2023-02-19T07:24:03.664Z,982.80
2023-02-19T07:25:03.660Z,982.85
2023-02-19T07:26:03.658Z,982.86
2023-02-19T07:27:03.673Z,982.87
2023-02-19T07:28:03.649Z,982.82
2023-02-19T07:29:03.635Z,982.83
2023-02-19T07:30:03.636Z,982.88
2023-02-19T07:31:03.732Z,982.93
2023-02-19T07:32:03.699Z,982.89
2023-02-19T07:33:03.601Z,982.90
2023-02-19T07:34:03.589Z,982.98
2023-02-19T07:35:03.565Z,982.92
2023-02-19T07:36:03.582Z,982.96
2023-02-19T07:37:03.554Z,983.06
2023-02-19T07:38:03.571Z,983.00
2023-02-19T07:39:03.552Z,983.04
2023-02-19T07:40:03.538Z,983.14
2023-02-19T07:41:03.538Z,983.12
2023-02-19T07:42:03.527Z,983.09
2023-02-19T07:43:03.499Z,983.11
2023-02-19T07:44:03.507Z,983.05
2023-02-19T07:45:04.500Z,983.06
2023-02-19T07:46:03.555Z,983.06
2023-02-19T07:47:03.483Z,983.14
2023-02-19T07:48:03.463Z,983.12
2023-02-19T07:49:03.457Z,983.15
2023-02-19T07:50:03.454Z,983.18
2023-02-19T07:51:03.466Z,983.21
2023-02-19T07:52:03.426Z,983.26
2023-02-19T07:53:03.418Z,983.29
2023-02-19T07:54:03.420Z,983.40
2023-02-19T07:55:03.399Z,983.37
2023-02-19T07:56:03.413Z,983.33
2023-02-19T07:57:03.386Z,983.39
2023-02-19T07:58:05.834Z,983.46
2023-02-19T07:59:03.365Z,983.39
2023-02-19T08:00:03.359Z,983.38
2023-02-19T08:01:03.387Z,983.42
2023-02-19T08:02:03.476Z,983.49
2023-02-19T08:03:03.459Z,983.48
2023-02-19T08:04:03.323Z,983.54
2023-02-19T08:05:03.319Z,983.47
2023-02-19T08:06:03.319Z,983.59
2023-02-19T08:07:03.296Z,983.52
2023-02-19T08:08:03.293Z,983.63
2023-02-19T08:09:03.275Z,983.63
2023-02-19T08:10:03.270Z,983.60
2023-02-19T08:11:03.269Z,983.68
2023-02-19T08:12:03.244Z,983.73
2023-02-19T08:13:03.242Z,983.76
2023-02-19T08:14:03.258Z,983.72
2023-02-19T08:15:03.220Z,983.71
2023-02-19T08:16:18.450Z,983.75
2023-02-19T08:17:05.214Z,983.78
2023-02-19T08:18:03.189Z,983.77
2023-02-19T08:19:03.180Z,983.70
2023-02-19T08:20:03.174Z,983.76
2023-02-19T08:21:03.174Z,983.80
2023-02-19T08:22:03.191Z,983.74
2023-02-19T08:23:03.152Z,983.82
2023-02-19T08:24:03.150Z,983.82
2023-02-19T08:25:03.126Z,983.85
2023-02-19T08:26:03.124Z,983.83
2023-02-19T08:27:03.106Z,983.84
2023-02-19T08:28:03.099Z,983.89
2023-02-19T08:29:03.095Z,983.95
2023-02-19T08:30:03.135Z,983.95
2023-02-19T08:31:03.179Z,983.97
2023-02-19T08:32:03.103Z,983.94
2023-02-19T08:33:03.052Z,983.98
2023-02-19T08:34:03.041Z,984.05
2023-02-19T08:35:03.046Z,983.98
2023-02-19T08:36:03.061Z,984.04
2023-02-19T08:37:03.023Z,984.02
2023-02-19T08:38:03.001Z,983.98
2023-02-19T08:39:03.001Z,983.99
2023-02-19T08:40:02.988Z,983.98
2023-02-19T08:41:02.989Z,984.02
2023-02-19T08:42:02.984Z,984.01
2023-02-19T08:43:02.960Z,984.02
2023-02-19T08:44:02.964Z,984.09
2023-02-19T08:45:02.951Z,984.10
2023-02-19T08:46:03.068Z,984.18
2023-02-19T08:47:02.922Z,984.11
2023-02-19T08:48:02.935Z,984.15
2023-02-19T08:49:02.911Z,984.08
2023-02-19T08:50:02.907Z,984.12
2023-02-19T08:51:02.904Z,984.15
2023-02-19T08:52:02.882Z,984.16
2023-02-19T08:53:02.904Z,984.16
2023-02-19T08:54:02.868Z,984.12
2023-02-19T08:55:02.850Z,984.18
2023-02-19T08:56:02.851Z,984.25
2023-02-19T08:57:02.833Z,984.23
2023-02-19T08:58:02.833Z,984.22
2023-02-19T08:59:02.818Z,984.23
2023-02-19T09:00:02.798Z,984.22
2023-02-19T09:01:02.845Z,984.31
2023-02-19T09:02:02.788Z,984.31
2023-02-19T09:03:02.772Z,984.32
2023-02-19T09:04:02.822Z,984.30
2023-02-19T09:05:02.749Z,984.32
2023-02-19T09:06:02.760Z,984.30
2023-02-19T09:07:02.736Z,984.42
2023-02-19T09:08:02.727Z,984.33
2023-02-19T09:09:02.720Z,984.38
2023-02-19T09:10:02.719Z,984.44
2023-02-19T09:11:02.719Z,984.41
2023-02-19T09:12:02.684Z,984.41
2023-02-19T09:13:03.716Z,984.45
2023-02-19T09:14:02.675Z,984.49
2023-02-19T09:15:02.687Z,984.43
2023-02-19T09:16:02.701Z,984.36
2023-02-19T09:17:02.656Z,984.47
2023-02-19T09:18:02.630Z,984.45
2023-02-19T09:19:02.628Z,984.50
2023-02-19T09:20:02.619Z,984.54
2023-02-19T09:21:02.640Z,984.56
2023-02-19T09:22:02.600Z,984.60
2023-02-19T09:23:02.606Z,984.50
2023-02-19T09:24:02.580Z,984.53
2023-02-19T09:25:02.594Z,984.52
2023-02-19T09:26:02.588Z,984.51
2023-02-19T09:27:02.570Z,984.59
2023-02-19T09:28:02.546Z,984.63
2023-02-19T09:29:02.535Z,984.67
2023-02-19T09:30:02.555Z,984.68
2023-02-19T09:31:02.608Z,984.67
2023-02-19T09:32:02.534Z,984.69
2023-02-19T09:33:02.510Z,984.80
2023-02-19T09:34:02.497Z,984.81
2023-02-19T09:35:02.486Z,984.88
2023-02-19T09:36:02.488Z,984.89
2023-02-19T09:37:02.480Z,984.95
2023-02-19T09:38:02.466Z,984.94
2023-02-19T09:39:02.490Z,985.01
2023-02-19T09:40:02.445Z,984.99
2023-02-19T09:41:02.441Z,984.91
2023-02-19T09:42:02.447Z,985.06
2023-02-19T09:43:02.420Z,985.04
2023-02-19T09:44:02.412Z,985.10
2023-02-19T09:45:02.404Z,985.11
2023-02-19T09:46:02.438Z,985.11
2023-02-19T09:47:02.390Z,985.15
2023-02-19T09:48:02.386Z,985.09
2023-02-19T09:49:02.363Z,985.13
2023-02-19T09:50:02.382Z,985.19
2023-02-19T09:51:02.338Z,985.18
2023-02-19T09:52:02.343Z,985.23
2023-02-19T09:53:02.322Z,985.25
2023-02-19T09:54:02.313Z,985.32
2023-02-19T09:55:02.351Z,985.35
2023-02-19T09:56:02.296Z,985.37
2023-02-19T09:57:02.304Z,985.34
2023-02-19T09:58:02.282Z,985.32
2023-02-19T09:59:02.262Z,985.37
2023-02-19T10:00:02.245Z,985.40
2023-02-19T10:01:03.246Z,985.48
2023-02-19T10:02:02.247Z,985.48
2023-02-19T10:03:02.233Z,985.44
2023-02-19T10:04:02.230Z,985.61
2023-02-19T10:05:02.227Z,985.55
2023-02-19T10:06:02.212Z,985.60
2023-02-19T10:07:02.214Z,985.61
2023-02-19T10:08:02.187Z,985.58
2023-02-19T10:09:02.181Z,985.59
2023-02-19T10:10:02.164Z,985.52
2023-02-19T10:11:02.151Z,985.53
2023-02-19T10:12:02.157Z,985.54
2023-02-19T10:13:02.130Z,985.51
2023-02-19T10:14:02.119Z,985.59
2023-02-19T10:15:02.108Z,985.61
2023-02-19T10:16:02.281Z,985.58
2023-02-19T10:17:02.103Z,985.63
2023-02-19T10:18:02.111Z,985.66
2023-02-19T10:19:02.081Z,985.66
2023-02-19T10:20:02.064Z,985.73
2023-02-19T10:21:02.075Z,985.71
2023-02-19T10:22:02.053Z,985.76
2023-02-19T10:23:02.044Z,985.82
2023-02-19T10:24:02.034Z,985.85
2023-02-19T10:25:02.014Z,985.88
2023-02-19T10:26:02.013Z,985.85
2023-02-19T10:27:02.016Z,985.83
2023-02-19T10:28:01.996Z,985.91
2023-02-19T10:29:01.979Z,985.92
2023-02-19T10:30:02.031Z,985.91
2023-02-19T10:31:01.993Z,985.93
2023-02-19T10:32:01.984Z,985.86
2023-02-19T10:33:01.942Z,985.97
2023-02-19T10:34:01.945Z,986.03
2023-02-19T10:35:01.927Z,986.01
2023-02-19T10:36:01.913Z,986.04
2023-02-19T10:37:01.918Z,986.10
2023-02-19T10:38:01.894Z,986.14
2023-02-19T10:39:01.922Z,986.07
2023-02-19T10:40:01.881Z,986.22
2023-02-19T10:41:01.907Z,986.21
2023-02-19T10:42:01.880Z,986.25
2023-02-19T10:43:01.863Z,986.27
2023-02-19T10:44:01.854Z,986.21
2023-02-19T10:45:01.864Z,986.37
2023-02-19T10:46:01.833Z,986.34
2023-02-19T10:47:01.825Z,986.39
2023-02-19T10:48:01.802Z,986.41
2023-02-19T10:49:01.799Z,986.43
2023-02-19T10:50:04.376Z,986.42
2023-02-19T10:51:02.781Z,986.49
2023-02-19T10:52:01.781Z,986.48
2023-02-19T10:53:01.761Z,986.55
2023-02-19T10:54:01.749Z,986.53
2023-02-19T10:55:01.741Z,986.49
2023-02-19T10:56:01.726Z,986.57
2023-02-19T10:57:01.764Z,986.46
2023-02-19T10:58:01.718Z,986.57
2023-02-19T10:59:01.699Z,986.58
2023-02-19T11:00:01.708Z,986.56
2023-02-19T11:01:01.692Z,986.71
2023-02-19T11:02:01.709Z,986.72
2023-02-19T11:03:01.665Z,986.70
2023-02-19T11:04:01.683Z,986.85
2023-02-19T11:05:01.655Z,986.77
2023-02-19T11:06:01.652Z,986.81
2023-02-19T11:07:01.673Z,986.79
2023-02-19T11:08:01.619Z,986.86
2023-02-19T11:09:01.635Z,986.79
2023-02-19T11:10:01.601Z,986.75
2023-02-19T11:11:01.588Z,986.77
2023-02-19T11:12:01.603Z,986.77
2023-02-19T11:13:01.592Z,986.67
2023-02-19T11:14:01.562Z,986.71
2023-02-19T11:15:01.553Z,986.72
2023-02-19T11:16:01.587Z,986.71
2023-02-19T11:17:01.543Z,986.74
2023-02-19T11:18:01.524Z,986.67
2023-02-19T11:19:01.534Z,986.73
2023-02-19T11:20:01.508Z,986.75
2023-02-19T11:21:01.496Z,986.82
2023-02-19T11:22:01.508Z,986.82
2023-02-19T11:23:01.489Z,986.72
2023-02-19T11:24:01.477Z,986.76
2023-02-19T11:25:01.460Z,986.76
2023-02-19T11:26:01.456Z,986.79
2023-02-19T11:27:01.467Z,986.75
2023-02-19T11:28:01.433Z,986.72
2023-02-19T11:29:01.446Z,986.74
2023-02-19T11:30:01.441Z,986.73
2023-02-19T11:31:01.425Z,986.65
2023-02-19T11:32:01.505Z,986.69
2023-02-19T11:33:01.386Z,986.81
2023-02-19T11:34:01.375Z,986.75
2023-02-19T11:35:01.374Z,986.80
2023-02-19T11:36:01.364Z,986.77
2023-02-19T11:37:01.360Z,986.80
2023-02-19T11:38:01.346Z,986.80
2023-02-19T11:39:01.333Z,986.75
2023-02-19T11:40:01.338Z,986.85
2023-02-19T11:41:01.313Z,986.78
2023-02-19T11:42:01.350Z,986.88
2023-02-19T11:43:01.297Z,986.81
2023-02-19T11:44:01.291Z,986.88
2023-02-19T11:45:02.279Z,986.93
2023-02-19T11:46:01.283Z,986.93
2023-02-19T11:47:01.282Z,987.01
2023-02-19T11:48:01.248Z,986.94
2023-02-19T11:49:01.248Z,986.99
2023-02-19T11:50:01.243Z,986.98
2023-02-19T11:51:01.220Z,987.01
2023-02-19T11:52:01.212Z,987.01
2023-02-19T11:53:01.217Z,987.03
2023-02-19T11:54:01.195Z,987.08
2023-02-19T11:55:01.188Z,987.09
2023-02-19T11:56:01.170Z,987.02
2023-02-19T11:57:01.161Z,986.95
2023-02-19T11:58:01.187Z,987.08
2023-02-19T11:59:01.376Z,987.08
2023-02-19T12:00:01.137Z,987.09
2023-02-19T12:01:01.132Z,987.09
2023-02-19T12:02:01.155Z,987.11
2023-02-19T12:03:01.115Z,987.10
2023-02-19T12:04:01.097Z,987.06
2023-02-19T12:05:01.122Z,987.05
2023-02-19T12:06:01.091Z,987.07
2023-02-19T12:07:01.064Z,987.07
2023-02-19T12:08:01.063Z,987.06
2023-02-19T12:09:01.049Z,987.07
2023-02-19T12:10:01.038Z,987.03
2023-02-19T12:11:01.025Z,987.09
2023-02-19T12:12:01.266Z,987.10
2023-02-19T12:13:01.018Z,987.07
2023-02-19T12:14:00.997Z,986.95
2023-02-19T12:15:00.989Z,987.01
2023-02-19T12:16:00.980Z,987.00
2023-02-19T12:17:00.974Z,986.98
2023-02-19T12:18:00.986Z,986.98
2023-02-19T12:19:00.955Z,987.00
2023-02-19T12:20:00.945Z,986.92
2023-02-19T12:21:00.949Z,986.91
2023-02-19T12:22:00.925Z,986.93
2023-02-19T12:23:00.931Z,986.97
2023-02-19T12:24:00.933Z,986.98
2023-02-19T12:25:00.912Z,986.89
2023-02-19T12:26:00.886Z,986.93
2023-02-19T12:27:00.876Z,986.86
2023-02-19T12:28:00.884Z,986.83